sensor_id;sensor_type;location;lat;lon;timestamp;pressure;altitude;pressure_sealevel;temperature;humidity
4415;BME280;2220;42.670;23.398;2023-01-29T00:01:24;94302.09;;;0.53;100.00
4415;BME280;2220;42.670;23.398;2023-01-29T00:03:50;94292.25;;;0.50;100.00
4415;BME280;2220;42.670;23.398;2023-01-29T00:06:16;94310.19;;;0.57;100.00
4415;BME280;2220;42.670;23.398;2023-01-29T00:08:42;94314.13;;;0.46;100.00
4415;BME280;2220;42.670;23.398;2023-01-29T00:11:08;94313.75;;;0.49;100.00
4415;BME280;2220;42.670;23.398;2023-01-29T00:13:33;94315.69;;;0.53;100.00
4415;BME280;2220;42.670;23.398;2023-01-29T00:15:59;94322.81;;;0.45;100.00
4415;BME280;2220;42.670;23.398;2023-01-29T00:18:26;94324.72;;;0.56;100.00
4415;BME280;2220;42.670;23.398;2023-01-29T00:20:52;94330.44;;;0.65;100.00
4415;BME280;2220;42.670;23.398;2023-01-29T00:23:17;94328.91;;;0.57;100.00
4415;BME280;2220;42.670;23.398;2023-01-29T00:25:44;94334.19;;;0.55;100.00
4415;BME280;2220;42.670;23.398;2023-01-29T00:28:09;94345.47;;;0.48;100.00
4415;BME280;2220;42.670;23.398;2023-01-29T00:30:36;94356.13;;;0.45;100.00
4415;BME280;2220;42.670;23.398;2023-01-29T00:33:02;94328.13;;;0.50;100.00
4415;BME280;2220;42.670;23.398;2023-01-29T00:35:28;94339.16;;;0.57;100.00
4415;BME280;2220;42.670;23.398;2023-01-29T00:37:54;94341.09;;;0.62;100.00
4415;BME280;2220;42.670;23.398;2023-01-29T00:40:20;94361.56;;;0.68;100.00
4415;BME280;2220;42.670;23.398;2023-01-29T00:42:48;94337.38;;;0.58;100.00
4415;BME280;2220;42.670;23.398;2023-01-29T00:45:33;94342.69;;;0.56;100.00
4415;BME280;2220;42.670;23.398;2023-01-29T00:48:04;94325.13;;;0.60;100.00
4415;BME280;2220;42.670;23.398;2023-01-29T00:50:30;94350.56;;;0.54;100.00
4415;BME280;2220;42.670;23.398;2023-01-29T00:52:56;94347.28;;;0.41;100.00
4415;BME280;2220;42.670;23.398;2023-01-29T00:55:22;94341.72;;;0.57;100.00
4415;BME280;2220;42.670;23.398;2023-01-29T00:57:47;94341.94;;;0.49;100.00
4415;BME280;2220;42.670;23.398;2023-01-29T01:00:16;94337.56;;;0.56;100.00
4415;BME280;2220;42.670;23.398;2023-01-29T01:02:42;94348.00;;;0.54;100.00
4415;BME280;2220;42.670;23.398;2023-01-29T01:05:26;94357.13;;;0.44;100.00
4415;BME280;2220;42.670;23.398;2023-01-29T01:07:55;94351.41;;;0.48;100.00
4415;BME280;2220;42.670;23.398;2023-01-29T01:10:27;94341.72;;;0.50;100.00
4415;BME280;2220;42.670;23.398;2023-01-29T01:12:56;94361.66;;;0.48;100.00
4415;BME280;2220;42.670;23.398;2023-01-29T01:15:27;94355.31;;;0.51;100.00
4415;BME280;2220;42.670;23.398;2023-01-29T01:17:55;94354.78;;;0.42;100.00
4415;BME280;2220;42.670;23.398;2023-01-29T01:20:22;94351.41;;;0.42;100.00
4415;BME280;2220;42.670;23.398;2023-01-29T01:22:48;94355.78;;;0.35;100.00
4415;BME280;2220;42.670;23.398;2023-01-29T01:25:14;94353.78;;;0.37;100.00
4415;BME280;2220;42.670;23.398;2023-01-29T01:27:40;94353.22;;;0.35;100.00
4415;BME280;2220;42.670;23.398;2023-01-29T01:30:11;94369.38;;;0.35;100.00
4415;BME280;2220;42.670;23.398;2023-01-29T01:32:37;94352.22;;;0.36;100.00
4415;BME280;2220;42.670;23.398;2023-01-29T01:35:03;94379.03;;;0.26;100.00
4415;BME280;2220;42.670;23.398;2023-01-29T01:37:29;94368.81;;;0.26;100.00
4415;BME280;2220;42.670;23.398;2023-01-29T01:39:54;94377.06;;;0.28;100.00
4415;BME280;2220;42.670;23.398;2023-01-29T01:42:26;94375.69;;;0.26;100.00
4415;BME280;2220;42.670;23.398;2023-01-29T01:44:59;94357.97;;;0.24;100.00
4415;BME280;2220;42.670;23.398;2023-01-29T01:47:36;94389.50;;;0.18;100.00
4415;BME280;2220;42.670;23.398;2023-01-29T01:50:12;94383.59;;;0.18;100.00
4415;BME280;2220;42.670;23.398;2023-01-29T01:52:44;94399.53;;;0.13;100.00
4415;BME280;2220;42.670;23.398;2023-01-29T01:55:12;94395.63;;;0.17;100.00
4415;BME280;2220;42.670;23.398;2023-01-29T01:57:40;94421.22;;;0.11;100.00
4415;BME280;2220;42.670;23.398;2023-01-29T02:00:09;94392.66;;;0.14;100.00
4415;BME280;2220;42.670;23.398;2023-01-29T02:02:41;94393.63;;;0.19;100.00
4415;BME280;2220;42.670;23.398;2023-01-29T02:05:27;94408.59;;;0.22;100.00
4415;BME280;2220;42.670;23.398;2023-01-29T02:08:13;94399.13;;;0.30;100.00
4415;BME280;2220;42.670;23.398;2023-01-29T02:11:00;94401.47;;;0.38;100.00
4415;BME280;2220;42.670;23.398;2023-01-29T02:13:29;94394.22;;;0.28;100.00
4415;BME280;2220;42.670;23.398;2023-01-29T02:15:54;94399.16;;;0.16;100.00
4415;BME280;2220;42.670;23.398;2023-01-29T02:18:20;94411.16;;;0.22;100.00
4415;BME280;2220;42.670;23.398;2023-01-29T02:29:35;94423.53;;;0.39;100.00
4415;BME280;2220;42.670;23.398;2023-01-29T02:35:16;94419.25;;;0.33;100.00
4415;BME280;2220;42.670;23.398;2023-01-29T02:40:32;94438.13;;;0.45;100.00
4415;BME280;2220;42.670;23.398;2023-01-29T02:45:52;94440.50;;;0.40;100.00
4415;BME280;2220;42.670;23.398;2023-01-29T02:48:33;94434.78;;;0.38;100.00
4415;BME280;2220;42.670;23.398;2023-01-29T02:51:13;94445.81;;;0.38;100.00
4415;BME280;2220;42.670;23.398;2023-01-29T02:56:28;94430.06;;;0.35;100.00
4415;BME280;2220;42.670;23.398;2023-01-29T02:59:09;94442.66;;;0.43;100.00
4415;BME280;2220;42.670;23.398;2023-01-29T03:01:47;94450.97;;;0.25;100.00
4415;BME280;2220;42.670;23.398;2023-01-29T03:04:22;94457.66;;;0.26;100.00
4415;BME280;2220;42.670;23.398;2023-01-29T03:06:53;94463.56;;;0.13;100.00
4415;BME280;2220;42.670;23.398;2023-01-29T03:09:32;94464.94;;;-0.04;100.00
4415;BME280;2220;42.670;23.398;2023-01-29T03:12:14;94463.59;;;-0.07;100.00
4415;BME280;2220;42.670;23.398;2023-01-29T03:14:54;94478.13;;;-0.01;100.00
4415;BME280;2220;42.670;23.398;2023-01-29T03:20:33;94483.28;;;-0.07;100.00
4415;BME280;2220;42.670;23.398;2023-01-29T03:23:05;94481.69;;;0.05;100.00
4415;BME280;2220;42.670;23.398;2023-01-29T03:25:34;94496.84;;;0.07;100.00
4415;BME280;2220;42.670;23.398;2023-01-29T03:28:20;94496.06;;;0.06;100.00
4415;BME280;2220;42.670;23.398;2023-01-29T03:31:08;94505.75;;;0.11;100.00
4415;BME280;2220;42.670;23.398;2023-01-29T03:36:35;94504.56;;;0.00;100.00
4415;BME280;2220;42.670;23.398;2023-01-29T03:39:11;94497.06;;;0.05;100.00
4415;BME280;2220;42.670;23.398;2023-01-29T03:41:41;94515.59;;;0.01;100.00
4415;BME280;2220;42.670;23.398;2023-01-29T03:47:11;94517.19;;;0.08;100.00
4415;BME280;2220;42.670;23.398;2023-01-29T03:52:27;94516.56;;;0.06;100.00
4415;BME280;2220;42.670;23.398;2023-01-29T03:55:01;94514.78;;;0.07;100.00
4415;BME280;2220;42.670;23.398;2023-01-29T04:00:44;94513.81;;;-0.06;100.00
4415;BME280;2220;42.670;23.398;2023-01-29T04:03:18;94525.81;;;-0.06;100.00
4415;BME280;2220;42.670;23.398;2023-01-29T04:05:53;94527.41;;;0.02;100.00
4415;BME280;2220;42.670;23.398;2023-01-29T04:08:26;94525.41;;;-0.03;100.00
4415;BME280;2220;42.670;23.398;2023-01-29T04:10:58;94536.66;;;-0.04;100.00
4415;BME280;2220;42.670;23.398;2023-01-29T04:13:26;94548.06;;;-0.07;100.00
4415;BME280;2220;42.670;23.398;2023-01-29T04:15:59;94538.00;;;-0.08;100.00
4415;BME280;2220;42.670;23.398;2023-01-29T04:18:25;94567.75;;;-0.01;100.00
4415;BME280;2220;42.670;23.398;2023-01-29T04:20:54;94558.47;;;-0.08;100.00
4415;BME280;2220;42.670;23.398;2023-01-29T04:23:25;94552.19;;;-0.12;100.00
4415;BME280;2220;42.670;23.398;2023-01-29T04:26:05;94562.81;;;-0.15;100.00
4415;BME280;2220;42.670;23.398;2023-01-29T04:31:33;94566.56;;;-0.11;100.00
4415;BME280;2220;42.670;23.398;2023-01-29T04:34:11;94580.34;;;-0.12;100.00
4415;BME280;2220;42.670;23.398;2023-01-29T04:36:48;94580.19;;;0.03;100.00
4415;BME280;2220;42.670;23.398;2023-01-29T04:39:25;94578.78;;;-0.13;100.00
4415;BME280;2220;42.670;23.398;2023-01-29T04:45:03;94588.63;;;-0.10;100.00
4415;BME280;2220;42.670;23.398;2023-01-29T04:50:15;94585.28;;;-0.04;100.00
4415;BME280;2220;42.670;23.398;2023-01-29T04:58:29;94596.53;;;0.02;100.00
4415;BME280;2220;42.670;23.398;2023-01-29T05:00:57;94596.53;;;0.02;100.00
4415;BME280;2220;42.670;23.398;2023-01-29T05:03:24;94591.59;;;0.07;100.00
4415;BME280;2220;42.670;23.398;2023-01-29T05:05:53;94591.44;;;0.08;100.00
4415;BME280;2220;42.670;23.398;2023-01-29T05:08:22;94594.75;;;-0.05;100.00
4415;BME280;2220;42.670;23.398;2023-01-29T05:10:50;94590.03;;;0.06;100.00
4415;BME280;2220;42.670;23.398;2023-01-29T05:13:18;94599.91;;;0.15;100.00
4415;BME280;2220;42.670;23.398;2023-01-29T05:15:57;94601.50;;;0.23;100.00
4415;BME280;2220;42.670;23.398;2023-01-29T05:18:24;94600.28;;;0.06;100.00
4415;BME280;2220;42.670;23.398;2023-01-29T05:20:55;94597.16;;;0.17;100.00
4415;BME280;2220;42.670;23.398;2023-01-29T05:23:22;94594.78;;;0.02;100.00
4415;BME280;2220;42.670;23.398;2023-01-29T05:25:51;94592.84;;;0.17;100.00
4415;BME280;2220;42.670;23.398;2023-01-29T05:28:17;94605.81;;;0.16;100.00
4415;BME280;2220;42.670;23.398;2023-01-29T05:30:47;94601.09;;;0.13;100.00
4415;BME280;2220;42.670;23.398;2023-01-29T05:33:24;94598.56;;;0.26;100.00
4415;BME280;2220;42.670;23.398;2023-01-29T05:35:50;94593.63;;;0.24;100.00
4415;BME280;2220;42.670;23.398;2023-01-29T05:38:16;94595.03;;;0.40;100.00
4415;BME280;2220;42.670;23.398;2023-01-29T05:40:42;94591.84;;;0.38;100.00
4415;BME280;2220;42.670;23.398;2023-01-29T05:43:19;94582.41;;;0.25;100.00
4415;BME280;2220;42.670;23.398;2023-01-29T05:45:56;94577.25;;;0.19;100.00
4415;BME280;2220;42.670;23.398;2023-01-29T05:48:23;94571.94;;;0.20;100.00
4415;BME280;2220;42.670;23.398;2023-01-29T05:50:48;94572.31;;;0.11;100.00
4415;BME280;2220;42.670;23.398;2023-01-29T05:53:14;94596.00;;;0.26;100.00
4415;BME280;2220;42.670;23.398;2023-01-29T05:55:43;94590.66;;;0.27;100.00
4415;BME280;2220;42.670;23.398;2023-01-29T05:58:09;94586.72;;;0.18;100.00
4415;BME280;2220;42.670;23.398;2023-01-29T06:00:35;94604.88;;;0.50;100.00
4415;BME280;2220;42.670;23.398;2023-01-29T06:03:03;94605.25;;;0.47;100.00
4415;BME280;2220;42.670;23.398;2023-01-29T06:05:28;94611.00;;;0.42;100.00
4415;BME280;2220;42.670;23.398;2023-01-29T06:07:54;94599.75;;;0.43;100.00
4415;BME280;2220;42.670;23.398;2023-01-29T06:10:19;94621.63;;;0.52;100.00
4415;BME280;2220;42.670;23.398;2023-01-29T06:12:45;94620.84;;;0.72;100.00
4415;BME280;2220;42.670;23.398;2023-01-29T06:15:11;94615.34;;;0.62;100.00
4415;BME280;2220;42.670;23.398;2023-01-29T06:17:40;94613.75;;;0.41;100.00
4415;BME280;2220;42.670;23.398;2023-01-29T06:20:06;94615.34;;;0.42;100.00
4415;BME280;2220;42.670;23.398;2023-01-29T06:22:32;94623.16;;;0.20;100.00
4415;BME280;2220;42.670;23.398;2023-01-29T06:24:57;94630.69;;;0.35;100.00
4415;BME280;2220;42.670;23.398;2023-01-29T06:27:23;94636.41;;;0.37;100.00
4415;BME280;2220;42.670;23.398;2023-01-29T06:29:48;94638.00;;;0.51;100.00
4415;BME280;2220;42.670;23.398;2023-01-29T06:32:14;94634.81;;;0.36;100.00
4415;BME280;2220;42.670;23.398;2023-01-29T06:34:39;94646.41;;;0.19;100.00
4415;BME280;2220;42.670;23.398;2023-01-29T06:37:05;94658.97;;;0.07;100.00
4415;BME280;2220;42.670;23.398;2023-01-29T06:39:32;94664.13;;;0.14;100.00
4415;BME280;2220;42.670;23.398;2023-01-29T06:42:13;94664.13;;;0.14;100.00
4415;BME280;2220;42.670;23.398;2023-01-29T06:44:38;94676.75;;;0.15;100.00
4415;BME280;2220;42.670;23.398;2023-01-29T06:47:04;94683.06;;;0.19;100.00
4415;BME280;2220;42.670;23.398;2023-01-29T06:49:29;94685.22;;;0.16;100.00
4415;BME280;2220;42.670;23.398;2023-01-29T06:51:54;94691.16;;;0.16;100.00
4415;BME280;2220;42.670;23.398;2023-01-29T06:54:20;94696.50;;;0.28;100.00
4415;BME280;2220;42.670;23.398;2023-01-29T06:56:45;94703.00;;;0.31;100.00
4415;BME280;2220;42.670;23.398;2023-01-29T06:59:11;94699.81;;;0.22;100.00
4415;BME280;2220;42.670;23.398;2023-01-29T07:01:40;94705.34;;;0.19;100.00
4415;BME280;2220;42.670;23.398;2023-01-29T07:04:06;94707.91;;;0.19;100.00
4415;BME280;2220;42.670;23.398;2023-01-29T07:06:32;94714.81;;;0.32;100.00
4415;BME280;2220;42.670;23.398;2023-01-29T07:08:58;94720.94;;;0.31;100.00
4415;BME280;2220;42.670;23.398;2023-01-29T07:11:23;94714.03;;;0.24;100.00
4415;BME280;2220;42.670;23.398;2023-01-29T07:13:49;94722.50;;;0.32;100.00
4415;BME280;2220;42.670;23.398;2023-01-29T07:16:17;94725.25;;;0.30;100.00
4415;BME280;2220;42.670;23.398;2023-01-29T07:18:43;94721.53;;;0.33;100.00
4415;BME280;2220;42.670;23.398;2023-01-29T07:21:09;94720.38;;;0.42;100.00
4415;BME280;2220;42.670;23.398;2023-01-29T07:23:34;94734.19;;;0.47;100.00
4415;BME280;2220;42.670;23.398;2023-01-29T07:26:04;94736.16;;;0.45;100.00
4415;BME280;2220;42.670;23.398;2023-01-29T07:28:30;94728.44;;;0.39;100.00
4415;BME280;2220;42.670;23.398;2023-01-29T07:30:56;94744.06;;;0.50;100.00
4415;BME280;2220;42.670;23.398;2023-01-29T07:33:22;94729.84;;;0.48;100.00
4415;BME280;2220;42.670;23.398;2023-01-29T07:35:47;94745.50;;;0.66;100.00
4415;BME280;2220;42.670;23.398;2023-01-29T07:38:13;94721.56;;;0.46;100.00
4415;BME280;2220;42.670;23.398;2023-01-29T07:40:38;94738.38;;;0.62;100.00
4415;BME280;2220;42.670;23.398;2023-01-29T07:43:05;94729.06;;;0.54;100.00
4415;BME280;2220;42.670;23.398;2023-01-29T07:45:33;94733.81;;;0.64;100.00
4415;BME280;2220;42.670;23.398;2023-01-29T07:47:58;94717.84;;;0.55;100.00
4415;BME280;2220;42.670;23.398;2023-01-29T07:50:25;94731.25;;;0.50;100.00
4415;BME280;2220;42.670;23.398;2023-01-29T07:52:53;94724.19;;;0.66;100.00
4415;BME280;2220;42.670;23.398;2023-01-29T07:55:22;94728.16;;;0.81;100.00
4415;BME280;2220;42.670;23.398;2023-01-29T07:57:54;94725.00;;;0.93;100.00
4415;BME280;2220;42.670;23.398;2023-01-29T08:00:20;94718.13;;;1.00;100.00
4415;BME280;2220;42.670;23.398;2023-01-29T08:02:46;94711.41;;;1.12;100.00
4415;BME280;2220;42.670;23.398;2023-01-29T08:05:11;94710.63;;;0.98;100.00
4415;BME280;2220;42.670;23.398;2023-01-29T08:07:36;94708.06;;;1.05;100.00
4415;BME280;2220;42.670;23.398;2023-01-29T08:10:02;94703.31;;;1.08;100.00
4415;BME280;2220;42.670;23.398;2023-01-29T08:12:28;94698.38;;;1.07;100.00
4415;BME280;2220;42.670;23.398;2023-01-29T08:14:53;94692.06;;;1.16;100.00
4415;BME280;2220;42.670;23.398;2023-01-29T08:17:19;94687.53;;;1.18;100.00
4415;BME280;2220;42.670;23.398;2023-01-29T08:19:44;94681.81;;;1.23;100.00
4415;BME280;2220;42.670;23.398;2023-01-29T08:22:09;94667.38;;;1.28;100.00
4415;BME280;2220;42.670;23.398;2023-01-29T08:24:35;94654.97;;;1.25;100.00
4415;BME280;2220;42.670;23.398;2023-01-29T08:27:00;94653.38;;;1.31;100.00
4415;BME280;2220;42.670;23.398;2023-01-29T08:29:26;94649.25;;;1.17;100.00
4415;BME280;2220;42.670;23.398;2023-01-29T08:31:51;94635.22;;;1.26;100.00
4415;BME280;2220;42.670;23.398;2023-01-29T08:34:17;94629.09;;;1.27;100.00
4415;BME280;2220;42.670;23.398;2023-01-29T08:36:42;94618.81;;;1.33;100.00
4415;BME280;2220;42.670;23.398;2023-01-29T08:39:08;94615.69;;;1.31;100.00
4415;BME280;2220;42.670;23.398;2023-01-29T08:41:33;94596.94;;;1.31;100.00
4415;BME280;2220;42.670;23.398;2023-01-29T08:43:58;94587.84;;;1.28;100.00
4415;BME280;2220;42.670;23.398;2023-01-29T08:46:26;94583.66;;;1.40;100.00
4415;BME280;2220;42.670;23.398;2023-01-29T08:48:52;94566.72;;;1.33;100.00
4415;BME280;2220;42.670;23.398;2023-01-29T08:51:17;94554.25;;;1.43;100.00
4415;BME280;2220;42.670;23.398;2023-01-29T08:53:43;94532.91;;;1.43;100.00
4415;BME280;2220;42.670;23.398;2023-01-29T08:56:08;94535.13;;;1.39;100.00
4415;BME280;2220;42.670;23.398;2023-01-29T08:58:33;94531.88;;;1.57;100.00
4415;BME280;2220;42.670;23.398;2023-01-29T09:01:09;94516.25;;;1.58;100.00
4415;BME280;2220;42.670;23.398;2023-01-29T09:03:35;94497.59;;;1.45;100.00
4415;BME280;2220;42.670;23.398;2023-01-29T09:06:02;94502.44;;;1.59;100.00
4415;BME280;2220;42.670;23.398;2023-01-29T09:08:28;94480.72;;;1.62;100.00
4415;BME280;2220;42.670;23.398;2023-01-29T09:10:53;94473.31;;;1.40;100.00
4415;BME280;2220;42.670;23.398;2023-01-29T09:13:19;94456.47;;;1.51;100.00
4415;BME280;2220;42.670;23.398;2023-01-29T09:15:44;94433.28;;;1.64;100.00
4415;BME280;2220;42.670;23.398;2023-01-29T09:18:09;94435.75;;;1.53;100.00
4415;BME280;2220;42.670;23.398;2023-01-29T09:20:35;94409.63;;;1.62;100.00
4415;BME280;2220;42.670;23.398;2023-01-29T09:23:09;94399.88;;;1.71;100.00
4415;BME280;2220;42.670;23.398;2023-01-29T09:25:35;94384.47;;;1.71;100.00
4415;BME280;2220;42.670;23.398;2023-01-29T09:28:01;94371.16;;;1.56;100.00
4415;BME280;2220;42.670;23.398;2023-01-29T09:30:27;94379.69;;;1.50;100.00
4415;BME280;2220;42.670;23.398;2023-01-29T09:32:52;94360.97;;;1.43;100.00
4415;BME280;2220;42.670;23.398;2023-01-29T09:35:17;94358.31;;;1.31;100.00
4415;BME280;2220;42.670;23.398;2023-01-29T09:37:46;94346.75;;;1.47;100.00
4415;BME280;2220;42.670;23.398;2023-01-29T09:40:37;94336.31;;;1.66;100.00
4415;BME280;2220;42.670;23.398;2023-01-29T09:43:17;94322.91;;;1.64;100.00
4415;BME280;2220;42.670;23.398;2023-01-29T09:45:55;94305.28;;;1.68;100.00
4415;BME280;2220;42.670;23.398;2023-01-29T09:48:26;94300.47;;;1.78;100.00
4415;BME280;2220;42.670;23.398;2023-01-29T09:50:56;94292.66;;;1.66;100.00
4415;BME280;2220;42.670;23.398;2023-01-29T09:53:47;94285.09;;;1.53;100.00
4415;BME280;2220;42.670;23.398;2023-01-29T09:56:19;94286.06;;;1.52;100.00
4415;BME280;2220;42.670;23.398;2023-01-29T09:58:45;94282.53;;;1.53;100.00
4415;BME280;2220;42.670;23.398;2023-01-29T10:01:38;94282.19;;;1.68;100.00
4415;BME280;2220;42.670;23.398;2023-01-29T10:04:39;94286.97;;;1.64;100.00
4415;BME280;2220;42.670;23.398;2023-01-29T10:07:35;94275.66;;;1.72;100.00
4415;BME280;2220;42.670;23.398;2023-01-29T10:10:21;94267.16;;;1.72;100.00
4415;BME280;2220;42.670;23.398;2023-01-29T10:13:06;94268.22;;;1.64;100.00
4415;BME280;2220;42.670;23.398;2023-01-29T10:15:52;94273.06;;;1.72;100.00
4415;BME280;2220;42.670;23.398;2023-01-29T10:24:02;94252.13;;;1.50;100.00
4415;BME280;2220;42.670;23.398;2023-01-29T10:26:32;94263.31;;;1.37;100.00
4415;BME280;2220;42.670;23.398;2023-01-29T10:29:01;94255.63;;;1.37;100.00
4415;BME280;2220;42.670;23.398;2023-01-29T10:31:32;94256.34;;;1.45;100.00
4415;BME280;2220;42.670;23.398;2023-01-29T10:36:43;94257.22;;;1.57;100.00
4415;BME280;2220;42.670;23.398;2023-01-29T10:39:17;94242.97;;;1.61;100.00
4415;BME280;2220;42.670;23.398;2023-01-29T10:44:57;94242.22;;;1.79;100.00
4415;BME280;2220;42.670;23.398;2023-01-29T10:52:32;94227.59;;;1.79;100.00
4415;BME280;2220;42.670;23.398;2023-01-29T11:00:41;94222.78;;;1.64;100.00
4415;BME280;2220;42.670;23.398;2023-01-29T11:03:21;94227.47;;;1.67;100.00
4415;BME280;2220;42.670;23.398;2023-01-29T11:08:40;94228.44;;;1.73;100.00
4415;BME280;2220;42.670;23.398;2023-01-29T11:11:11;94218.09;;;1.80;100.00
4415;BME280;2220;42.670;23.398;2023-01-29T11:14:04;94221.94;;;1.71;100.00
4415;BME280;2220;42.670;23.398;2023-01-29T11:16:39;94218.44;;;1.83;100.00
4415;BME280;2220;42.670;23.398;2023-01-29T11:19:05;94215.59;;;1.55;100.00
4415;BME280;2220;42.670;23.398;2023-01-29T11:21:30;94224.06;;;1.55;100.00
4415;BME280;2220;42.670;23.398;2023-01-29T11:24:15;94236.88;;;1.37;100.00
4415;BME280;2220;42.670;23.398;2023-01-29T11:26:42;94234.13;;;1.32;100.00
4415;BME280;2220;42.670;23.398;2023-01-29T11:31:52;94221.00;;;1.47;100.00
4415;BME280;2220;42.670;23.398;2023-01-29T11:34:20;94228.22;;;1.75;100.00
4415;BME280;2220;42.670;23.398;2023-01-29T11:36:56;94227.16;;;1.82;100.00
4415;BME280;2220;42.670;23.398;2023-01-29T11:39:23;94217.19;;;1.49;100.00
4415;BME280;2220;42.670;23.398;2023-01-29T11:44:29;94224.47;;;1.52;100.00
4415;BME280;2220;42.670;23.398;2023-01-29T11:47:09;94217.69;;;1.39;100.00
4415;BME280;2220;42.670;23.398;2023-01-29T11:49:36;94223.44;;;1.35;100.00
4415;BME280;2220;42.670;23.398;2023-01-29T11:52:06;94232.53;;;1.37;100.00
4415;BME280;2220;42.670;23.398;2023-01-29T11:54:44;94226.66;;;1.30;100.00
4415;BME280;2220;42.670;23.398;2023-01-29T11:59:50;94237.78;;;1.43;100.00
4415;BME280;2220;42.670;23.398;2023-01-29T12:02:21;94223.69;;;1.52;100.00
4415;BME280;2220;42.670;23.398;2023-01-29T12:04:48;94232.16;;;1.52;100.00
4415;BME280;2220;42.670;23.398;2023-01-29T12:07:17;94232.63;;;1.67;100.00
4415;BME280;2220;42.670;23.398;2023-01-29T12:09:56;94220.78;;;1.66;100.00
4415;BME280;2220;42.670;23.398;2023-01-29T12:17:35;94229.16;;;1.62;100.00
4415;BME280;2220;42.670;23.398;2023-01-29T12:20:12;94211.63;;;1.77;100.00
4415;BME280;2220;42.670;23.398;2023-01-29T12:27:52;94224.63;;;1.76;100.00
4415;BME280;2220;42.670;23.398;2023-01-29T12:30:53;94225.56;;;1.63;100.00
4415;BME280;2220;42.670;23.398;2023-01-29T12:36:06;94225.84;;;1.73;100.00
4415;BME280;2220;42.670;23.398;2023-01-29T12:38:34;94222.00;;;1.82;100.00
4415;BME280;2220;42.670;23.398;2023-01-29T12:41:24;94222.78;;;1.64;100.00
4415;BME280;2220;42.670;23.398;2023-01-29T12:43:56;94220.00;;;1.66;100.00
4415;BME280;2220;42.670;23.398;2023-01-29T12:46:36;94210.78;;;1.58;100.00
4415;BME280;2220;42.670;23.398;2023-01-29T12:49:10;94227.13;;;1.64;100.00
4415;BME280;2220;42.670;23.398;2023-01-29T12:52:06;94219.44;;;1.64;100.00
4415;BME280;2220;42.670;23.398;2023-01-29T12:57:22;94215.25;;;1.70;100.00
4415;BME280;2220;42.670;23.398;2023-01-29T12:59:55;94227.47;;;1.67;100.00
4415;BME280;2220;42.670;23.398;2023-01-29T13:02:31;94209.31;;;1.69;100.00
4415;BME280;2220;42.670;23.398;2023-01-29T13:05:06;94206.09;;;1.74;100.00
4415;BME280;2220;42.670;23.398;2023-01-29T13:07:41;94203.34;;;1.93;100.00
4415;BME280;2220;42.670;23.398;2023-01-29T13:10:14;94203.41;;;1.87;100.00
4415;BME280;2220;42.670;23.398;2023-01-29T13:12:50;94191.75;;;1.84;100.00
4415;BME280;2220;42.670;23.398;2023-01-29T13:15:25;94193.63;;;1.77;100.00
4415;BME280;2220;42.670;23.398;2023-01-29T13:18:01;94196.34;;;1.82;100.00
4415;BME280;2220;42.670;23.398;2023-01-29T13:20:33;94182.88;;;1.87;100.00
4415;BME280;2220;42.670;23.398;2023-01-29T13:26:18;94194.91;;;1.68;100.00
4415;BME280;2220;42.670;23.398;2023-01-29T13:28:45;94212.47;;;1.89;100.00
4415;BME280;2220;42.670;23.398;2023-01-29T13:31:30;94199.97;;;1.75;100.00
4415;BME280;2220;42.670;23.398;2023-01-29T13:34:07;94204.25;;;1.81;100.00
4415;BME280;2220;42.670;23.398;2023-01-29T13:36:35;94216.94;;;1.76;100.00
4415;BME280;2220;42.670;23.398;2023-01-29T13:39:06;94232.63;;;1.67;100.00
4415;BME280;2220;42.670;23.398;2023-01-29T13:41:37;94217.22;;;1.67;100.00
4415;BME280;2220;42.670;23.398;2023-01-29T13:46:58;94229.22;;;1.74;100.00
4415;BME280;2220;42.670;23.398;2023-01-29T13:49:34;94240.91;;;1.70;100.00
4415;BME280;2220;42.670;23.398;2023-01-29T13:55:21;94237.69;;;1.56;100.00
4415;BME280;2220;42.670;23.398;2023-01-29T13:57:56;94235.59;;;1.46;100.00
4415;BME280;2220;42.670;23.398;2023-01-29T14:08:02;94253.09;;;1.31;100.00
4415;BME280;2220;42.670;23.398;2023-01-29T14:10:31;94257.59;;;1.35;100.00
4415;BME280;2220;42.670;23.398;2023-01-29T14:15:28;94244.25;;;1.27;100.00
4415;BME280;2220;42.670;23.398;2023-01-29T14:23:02;94255.69;;;1.49;100.00
4415;BME280;2220;42.670;23.398;2023-01-29T14:25:34;94264.97;;;1.50;100.00
4415;BME280;2220;42.670;23.398;2023-01-29T14:28:03;94260.78;;;1.56;100.00
4415;BME280;2220;42.670;23.398;2023-01-29T14:30:38;94267.72;;;1.74;100.00
4415;BME280;2220;42.670;23.398;2023-01-29T14:33:05;94255.81;;;1.79;100.00
4415;BME280;2220;42.670;23.398;2023-01-29T14:35:48;94263.25;;;1.69;100.00
4415;BME280;2220;42.670;23.398;2023-01-29T14:38:17;94253.69;;;1.51;100.00
4415;BME280;2220;42.670;23.398;2023-01-29T14:40:46;94269.75;;;1.47;100.00
4415;BME280;2220;42.670;23.398;2023-01-29T14:43:16;94279.22;;;1.71;100.00
4415;BME280;2220;42.670;23.398;2023-01-29T14:45:45;94271.44;;;1.78;100.00
4415;BME280;2220;42.670;23.398;2023-01-29T14:50:37;94282.06;;;1.63;100.00
4415;BME280;2220;42.670;23.398;2023-01-29T14:53:19;94266.75;;;1.50;100.00
4415;BME280;2220;42.670;23.398;2023-01-29T14:56:18;94275.97;;;1.32;100.00
4415;BME280;2220;42.670;23.398;2023-01-29T14:58:51;94288.06;;;1.50;100.00
4415;BME280;2220;42.670;23.398;2023-01-29T15:01:34;94298.72;;;1.54;100.00
4415;BME280;2220;42.670;23.398;2023-01-29T15:04:04;94283.88;;;1.56;100.00
4415;BME280;2220;42.670;23.398;2023-01-29T15:06:51;94290.94;;;1.35;100.00
4415;BME280;2220;42.670;23.398;2023-01-29T15:17:26;94330.59;;;1.08;100.00
4415;BME280;2220;42.670;23.398;2023-01-29T15:19:53;94327.63;;;1.11;100.00
4415;BME280;2220;42.670;23.398;2023-01-29T15:22:21;94334.25;;;1.25;100.00
4415;BME280;2220;42.670;23.398;2023-01-29T15:25:09;94336.88;;;1.12;100.00
4415;BME280;2220;42.670;23.398;2023-01-29T15:27:41;94333.78;;;1.03;100.00
4415;BME280;2220;42.670;23.398;2023-01-29T15:30:14;94348.34;;;1.09;100.00
4415;BME280;2220;42.670;23.398;2023-01-29T15:32:40;94365.94;;;1.06;100.00
4415;BME280;2220;42.670;23.398;2023-01-29T15:38:01;94370.69;;;1.02;100.00
4415;BME280;2220;42.670;23.398;2023-01-29T15:40:36;94379.56;;;1.00;100.00
4415;BME280;2220;42.670;23.398;2023-01-29T15:43:01;94383.53;;;0.96;100.00
4415;BME280;2220;42.670;23.398;2023-01-29T15:45:42;94389.25;;;0.98;100.00